Latest Weather Observations for Cape Moreton

IDQ60901

Issued at 7:25 pm EST Friday 31 October 2014 (issued every 10 minutes, with the page automatically refreshed every 10 minutes)

About weather observations | Map of Brisbane area stations | Latest observations for Brisbane area | Other Formats
Station Details ID: 040043 Name: CAPE MORETON LIGHTHOUSE Lat: -27.03 Lon: 153.47 Height: 99.9 m
Data from the previous 72 hours. | See also: Recent months at Cape Moreton
Date/Time
EST
Tmp

°C
App
Tmp
°C
Dew
Point
°C
Rel
Hum
%
Delta-T

°C
Wind Press
QNH
hPa
Press
MSL
hPa
Rain
since
9 am
mm
Dir
 
Spd
km/h
Gust
km/h
Spd
kts
Gust
kts
31/07:00pm 22.7 19.6 19.7 83 1.9 N 35 44 19 24 1015.1 1014.7 0.0
31/06:30pm 22.7 20.1 19.9 84 1.8 N 33 44 18 24 1014.7 1014.3 0.0
31/06:00pm 22.7 20.1 19.9 84 1.8 N 33 44 18 24 1014.4 1014.0 0.0
31/05:30pm 22.9 20.3 19.9 83 1.9 N 33 46 18 25 1014.3 1013.9 0.0
31/05:00pm 23.4 20.5 20.0 81 2.2 NNE 35 44 19 24 1014.0 1013.6 0.0
31/04:30pm 23.6 20.9 19.7 79 2.5 NNE 33 41 18 22 1013.9 1013.5 0.0
31/04:00pm 24.1 21.7 20.0 78 2.7 NNE 32 41 17 22 1013.9 1013.5 0.0
31/03:30pm 24.0 21.4 19.9 78 2.7 NNE 33 43 18 23 1014.0 1013.6 0.0
31/03:00pm 24.8 23.1 19.8 74 3.2 NNE 28 33 15 18 1014.1 1013.7 0.0
31/02:30pm 24.8 22.2 19.6 73 3.4 NNE 32 39 17 21 1014.4 1014.0 0.0
31/02:00pm 25.0 23.1 19.4 71 3.6 NNE 28 33 15 18 1014.7 1014.3 0.0
31/01:30pm 25.7 25.0 19.6 69 4.0 NNE 22 28 12 15 1015.1 1014.7 0.0
31/01:00pm 26.1 26.1 20.2 70 3.9 NNE 20 26 11 14 1015.5 1015.1 0.0
31/12:30pm 26.0 26.0 20.1 70 3.9 NNE 20 24 11 13 1015.9 1015.5 0.0
31/12:00pm 25.4 25.8 19.8 71 3.6 NNE 17 20 9 11 1016.3 1015.9 0.0
31/11:30am 25.1 26.1 19.5 71 3.6 N 13 17 7 9 1016.7 1016.4 0.0
31/11:00am 25.2 26.3 19.6 71 3.6 NNE 13 19 7 10 1016.8 1016.5 0.0
31/10:30am 25.4 26.9 20.6 75 3.2 N 13 17 7 9 1017.0 1016.7 0.0
31/10:00am 24.8 26.3 20.5 77 2.8 N 13 15 7 8 1017.5 1017.2 0.0
31/09:30am 24.7 26.3 20.8 79 2.6 N 13 17 7 9 1017.5 1017.2 0.0
31/09:00am 23.9 25.3 20.4 81 2.3 N 13 17 7 9 1017.6 1017.3 0.0
31/08:30am 24.0 25.6 20.7 82 2.2 N 13 17 7 9 1017.8 1017.5 0.0
31/08:00am 24.2 25.7 20.5 80 2.4 N 13 17 7 9 1017.7 1017.4 0.0
31/07:30am 23.7 25.3 20.0 80 2.4 N 11 15 6 8 1017.5 1017.2 0.0
31/07:00am 23.8 26.1 20.7 83 2.0 NNE 9 13 5 7 1017.2 1016.9 0.0
31/06:30am 22.6 24.8 20.3 87 1.5 N 9 13 5 7 1017.1 1016.8 0.0
31/06:00am 22.3 23.5 20.0 87 1.5 N 13 17 7 9 1017.0 1016.7 0.0
31/05:30am 22.4 24.4 19.9 86 1.6 N 9 11 5 6 1016.5 1016.1 0.0
31/05:00am 22.3 23.8 18.9 81 2.2 N 9 11 5 6 1016.2 1015.8 0.0
31/04:30am 22.1 23.5 19.6 86 1.6 N 11 17 6 9 1015.8 1015.4 0.0
31/04:00am 22.1 23.8 19.3 84 1.8 N 9 15 5 8 1015.6 1015.2 0.0
31/03:30am 21.9 22.2 18.7 82 2.0 NNW 15 24 8 13 1015.5 1015.1 0.0
31/03:00am 22.2 23.1 20.1 88 1.4 N 15 19 8 10 1015.2 1014.8 0.0
31/02:30am 22.1 23.6 19.8 87 1.5 N 11 15 6 8 1015.1 1014.7 0.0
31/02:00am 22.0 23.0 19.5 86 1.6 N 13 15 7 8 1015.3 1014.9 0.0
31/01:30am 22.1 23.5 19.5 85 1.7 N 11 13 6 7 1015.6 1015.2 0.0
31/01:00am 22.0 23.3 19.4 85 1.7 NNE 11 13 6 7 1015.5 1015.1 0.0
31/12:30am 21.9 22.5 19.5 86 1.5 N 15 20 8 11 1015.8 1015.4 0.0
31/12:00am 21.9 22.2 19.5 86 1.5 N 17 24 9 13 1016.0 1015.6 0.0
 
Date/Time
EST
Tmp

°C
App
Tmp
°C
Dew
Point
°C
Rel
Hum
%
Delta-T

°C
Wind Press
QNH
hPa
Press
MSL
hPa
Rain
since
9 am
mm
Dir
 
Spd
km/h
Gust
km/h
Spd
kts
Gust
kts
30/11:30pm 21.7 21.9 19.3 86 1.5 N 17 22 9 12 1016.3 1015.9 0.0
30/11:00pm 21.8 22.4 19.4 86 1.5 N 15 19 8 10 1016.5 1016.1 0.0
30/10:30pm 21.9 22.2 19.5 86 1.5 NNE 17 22 9 12 1016.8 1016.5 0.0
30/10:00pm 22.1 21.8 19.6 86 1.6 N 20 28 11 15 1016.7 1016.4 0.0
30/09:30pm 22.0 20.9 19.4 85 1.7 N 24 30 13 16 1016.5 1016.1 0.0
30/09:00pm 22.0 20.9 19.4 85 1.7 NNE 24 32 13 17 1016.4 1016.0 0.0
30/08:30pm 22.1 21.4 19.5 85 1.7 NNE 22 28 12 15 1016.1 1015.7 0.0
30/08:00pm 22.1 20.8 19.1 83 1.9 NNE 24 30 13 16 1015.9 1015.5 0.0
30/07:30pm 22.2 20.7 19.4 84 1.8 NE 26 32 14 17 1015.6 1015.2 0.0
30/07:00pm 22.1 20.1 19.1 83 1.9 NE 28 32 15 17 1015.3 1014.9 0.0
30/06:30pm 22.2 20.6 19.2 83 1.9 NE 26 32 14 17 1015.1 1014.7 0.0
30/06:00pm 22.3 20.3 19.1 82 2.0 NE 28 32 15 17 1014.7 1014.3 0.0
30/05:30pm 22.4 20.0 19.2 82 2.0 NE 30 33 16 18 1014.5 1014.1 0.0
30/05:00pm 22.5 20.5 19.1 81 2.2 ENE 28 32 15 17 1014.3 1013.9 0.0
30/04:30pm 22.6 20.8 18.8 79 2.4 ENE 26 30 14 16 1014.2 1013.8 0.0
30/04:00pm 22.7 20.9 18.7 78 2.5 ENE 26 30 14 16 1014.3 1013.9 0.0
30/03:30pm 22.6 20.8 18.8 79 2.4 ENE 26 28 14 15 1014.2 1013.8 0.0
30/03:00pm 23.2 21.8 18.7 76 2.9 ENE 24 28 13 15 1014.2 1013.8 0.0
30/02:30pm 23.7 22.9 18.4 72 3.4 ENE 20 22 11 12 1014.5 1014.1 0.0
30/02:00pm 24.2 23.8 18.8 72 3.4 ENE 19 20 10 11 1015.0 1014.6 0.0
30/01:30pm 24.9 24.8 18.8 69 3.9 ENE 17 19 9 10 1015.3 1014.9 0.0
30/01:00pm 25.2 25.6 18.9 68 4.0 ENE 15 19 8 10 1015.7 1015.3 0.0
30/12:30pm 26.1 26.6 20.0 69 4.0 ENE 17 19 9 10 1015.9 1015.5 0.0
30/12:00pm 25.9 26.2 19.5 68 4.1 E 17 20 9 11 1016.3 1015.9 0.0
30/11:30am 25.9 26.4 20.0 70 3.8 E 17 19 9 10 1016.7 1016.4 0.0
30/11:00am 25.5 25.7 19.4 69 3.9 E 17 20 9 11 1017.0 1016.7 0.0
30/10:30am 24.8 24.2 18.5 68 4.0 ESE 19 20 10 11 1017.4 1017.1 0.0
30/10:00am 26.1 26.4 19.7 68 4.2 ESE 17 20 9 11 1017.7 1017.4 0.0
30/09:30am 25.5 25.6 19.2 68 4.1 ESE 17 20 9 11 1017.7 1017.4 0.0
30/09:00am 25.8 26.1 19.7 69 4.0 SE 17 20 9 11 1018.0 1017.7 0.0
30/08:30am 25.6 25.5 19.5 69 3.9 SE 19 20 10 11 1018.2 1017.9 0.0
30/08:00am 24.7 24.4 19.1 71 3.6 SE 19 20 10 11 1018.2 1017.9 0.0
30/07:30am 24.1 24.0 18.7 72 3.4 SE 17 20 9 11 1018.1 1017.8 0.0
30/07:00am 24.0 24.0 18.9 73 3.2 SE 17 20 9 11 1017.9 1017.6 0.0
30/06:30am 23.0 21.8 18.5 76 2.8 ESE 22 24 12 13 1017.4 1017.1 0.0
30/06:00am 21.8 20.1 18.2 80 2.3 ESE 24 28 13 15 1017.0 1016.7 0.0
30/05:30am 21.3 19.0 17.7 80 2.2 ESE 26 30 14 16 1016.5 1016.1 0.0
30/05:00am 21.1 18.8 17.5 80 2.2 SE 26 32 14 17 1016.2 1015.8 0.0
30/04:30am 21.1 18.3 17.3 79 2.3 SE 28 32 15 17 1015.9 1015.5 0.0
30/04:00am 21.3 18.1 17.3 78 2.5 SE 30 32 16 17 1015.7 1015.3 0.0
30/03:30am 21.4 19.1 17.6 79 2.4 SE 26 32 14 17 1015.7 1015.3 0.0
30/03:00am 21.3 19.3 17.5 79 2.3 SE 24 28 13 15 1015.7 1015.3 0.0
30/02:30am 21.5 19.6 17.7 79 2.4 SE 24 28 13 15 1015.9 1015.5 0.0
30/02:00am 21.6 19.5 17.2 76 2.7 SE 24 30 13 16 1015.9 1015.5 0.0
30/01:30am 21.6 20.2 17.0 75 2.8 SE 20 24 11 13 1015.9 1015.5 0.0
30/01:00am 21.7 20.3 17.1 75 2.8 ESE 20 24 11 13 1016.1 1015.7 0.0
30/12:30am 21.8 20.0 17.0 74 2.9 ESE 22 26 12 14 1016.3 1015.9 0.0
30/12:00am 21.8 19.9 16.7 73 3.1 ESE 22 28 12 15 1016.6 1016.2 0.0
 
Date/Time
EST
Tmp

°C
App
Tmp
°C
Dew
Point
°C
Rel
Hum
%
Delta-T

°C
Wind Press
QNH
hPa
Press
MSL
hPa
Rain
since
9 am
mm
Dir
 
Spd
km/h
Gust
km/h
Spd
kts
Gust
kts
29/11:30pm 21.9 19.5 16.4 71 3.3 ESE 24 28 13 15 1017.0 1016.7 0.0
29/11:00pm 22.0 20.1 16.7 72 3.2 ESE 22 28 12 15 1017.1 1016.8 0.0
29/10:30pm 22.1 19.3 16.4 70 3.5 ESE 26 32 14 17 1017.2 1016.9 0.0
29/10:00pm 22.1 18.7 15.9 68 3.7 ESE 28 32 15 17 1017.2 1016.9 0.0
29/09:30pm 22.1 18.9 16.4 70 3.5 ESE 28 33 15 18 1017.1 1016.8 0.0
29/09:00pm 22.1 18.2 16.4 70 3.5 ESE 32 35 17 19 1017.0 1016.7 0.0
29/08:30pm 22.1 18.1 16.6 71 3.4 ESE 33 39 18 21 1016.8 1016.5 0.0
29/08:00pm 21.9 18.2 17.5 76 2.7 ESE 33 39 18 21 1016.5 1016.1 0.0
29/07:30pm 22.0 18.0 18.4 80 2.3 ESE 37 43 20 23 1016.1 1015.7 0.0
29/07:00pm 21.9 17.7 18.9 83 1.9 ESE 39 43 21 23 1015.8 1015.4 0.0
29/06:30pm 22.1 17.2 19.1 83 1.9 ESE 43 46 23 25 1015.2 1014.8 0.0
29/06:00pm 22.1 17.1 18.9 82 2.0 ESE 43 52 23 28 1014.8 1014.4 0.0
29/05:30pm 22.1 15.9 18.3 79 2.4 SE 48 54 26 29 1014.3 1013.9 0.0
29/05:00pm 22.5 16.8 18.5 78 2.5 SE 46 54 25 29 1014.1 1013.7 0.0
29/04:30pm 22.6 15.8 17.7 74 3.1 SE 50 57 27 31 1013.6 1013.2 0.0
29/04:00pm 22.9 15.6 17.4 71 3.4 SE 52 59 28 32 1013.2 1012.8 0.0
29/03:30pm 23.0 16.6 17.9 73 3.2 SE 48 56 26 30 1013.3 1012.9 0.0
29/03:00pm 23.1 16.6 18.4 75 3.0 SE 50 57 27 31 1013.3 1012.9 0.0
29/02:30pm 23.2 17.0 19.1 78 2.6 SE 50 57 27 31 1013.3 1012.9 0.0
29/02:00pm 23.5 17.8 19.4 78 2.6 SE 48 56 26 30 1013.4 1013.0 0.0
29/01:30pm 23.9 18.5 19.2 75 3.0 SE 46 54 25 29 1013.9 1013.5 0.0
29/01:00pm 24.3 19.0 19.4 74 3.2 SE 46 52 25 28 1014.0 1013.6 0.0
29/12:30pm 24.2 19.4 19.3 74 3.1 SE 43 52 23 28 1014.3 1013.9 0.0
29/12:00pm 24.2 19.4 19.7 76 2.9 SSE 44 52 24 28 1014.5 1014.1 0.0
29/11:30am 24.3 20.7 20.2 78 2.7 SSE 39 46 21 25 1014.8 1014.4 0.0
29/11:00am 23.9 19.8 19.2 75 3.0 SSE 39 44 21 24 1014.9 1014.5 0.0
29/10:30am 23.6 19.9 19.1 76 2.9 SSE 37 43 20 23 1015.0 1014.6 0.0
29/10:00am 24.3 21.7 19.6 75 3.0 SSE 32 43 17 23 1015.0 1014.6 0.0
29/09:30am 23.9 21.7 19.6 77 2.8 SSE 30 35 16 19 1015.1 1014.7 0.0
29/09:00am 23.7 21.5 20.4 82 2.1 SSE 32 37 17 20 1015.1 1014.7 0.2
29/08:30am 23.6 22.9 20.3 82 2.1 SSE 24 33 13 18 1014.8 1014.4 0.2
29/08:00am 23.3 23.9 20.2 83 2.0 S 17 22 9 12 1014.7 1014.3 0.2
29/07:30am 22.8 23.4 21.1 90 1.1 S 19 22 10 12 1014.4 1014.0 0.2
29/07:00am 22.1 23.2 21.3 95 0.5 S 17 22 9 12 1014.0 1013.6 0.2
29/06:30am 21.7 23.5 21.2 97 0.3 SSE 13 19 7 10 1013.7 1013.3 0.2
29/06:00am 21.0 21.4 20.7 98 0.2 SSE 19 24 10 13 1013.3 1012.9 0.2
29/05:30am 20.4 20.4 20.1 98 0.2 S 20 22 11 12 1012.9 1012.5 0.2
29/05:00am 20.6 20.9 20.3 98 0.2 S 19 24 10 13 1012.3 1012.0 0.0
29/04:30am 20.8 21.5 20.5 98 0.2 S 17 22 9 12 1012.0 1011.7 0.0
29/04:00am 20.8 21.9 20.5 98 0.2 S 15 19 8 10 1011.9 1011.6 0.0
29/03:30am 20.5 21.1 20.2 98 0.2 S 17 20 9 11 1011.5 1011.2 0.0
29/03:00am 20.4 21.6 19.9 97 0.3 SW 13 15 7 8 1011.6 1011.3 0.0
29/02:30am 20.7 22.4 20.2 97 0.3 SW 11 13 6 7 1011.5 1011.2 0.0
29/02:00am 20.8 22.2 20.3 97 0.3 SW 13 17 7 9 1011.3 1011.0 0.0
29/01:30am 21.1 23.0 20.6 97 0.3 SSW 11 13 6 7 1011.2 1010.9 0.0
29/01:00am 21.0 22.8 20.3 96 0.5 SSW 11 13 6 7 1011.2 1010.9 0.0
29/12:30am 21.1 23.7 20.4 96 0.5 SSW 7 9 4 5 1011.7 1011.4 0.0
29/12:00am 21.1 22.6 20.6 97 0.3 S 13 15 7 8 1011.7 1011.4 0.0
 
Date/Time
EST
Tmp

°C
App
Tmp
°C
Dew
Point
°C
Rel
Hum
%
Delta-T

°C
Wind Press
QNH
hPa
Press
MSL
hPa
Rain
since
9 am
mm
Dir
 
Spd
km/h
Gust
km/h
Spd
kts
Gust
kts
28/11:30pm 21.6 23.0 21.1 97 0.3 S 15 19 8 10 1012.0 1011.7 0.0
28/11:00pm 21.6 22.5 20.9 96 0.5 S 17 19 9 10 1011.9 1011.6 0.0
28/10:30pm 21.7 22.7 21.0 96 0.5 S 17 20 9 11 1011.7 1011.4 0.0
28/10:00pm 21.8 22.8 21.1 96 0.5 S 17 20 9 11 1011.6 1011.3 0.0
28/09:30pm 22.0 23.5 21.2 95 0.5 S 15 17 8 9 1011.6 1011.3 0.0
28/09:00pm 22.1 23.6 21.3 95 0.5 S 15 19 8 10 1011.6 1011.3 0.0
28/08:30pm 22.2 23.7 21.2 94 0.7 S 15 19 8 10 1011.8 1011.5 0.0
28/08:00pm 22.2 23.9 21.0 93 0.8 S 13 17 7 9 1011.6 1011.3 0.0
28/07:30pm 22.4 24.1 21.0 92 0.9 S 13 17 7 9 1011.5 1011.2 0.0

Latest Capital City Observations: Canberra | Sydney | Melbourne | Brisbane | Adelaide | Perth | Hobart | Darwin

Other Formats:

Comma delimited format used in spreadsheet applications
http://www.bom.gov.au/fwo/IDQ60901/IDQ60901.94594.axf

JavaScript Object Notation format (JSON) in row-major order
http://www.bom.gov.au/fwo/IDQ60901/IDQ60901.94594.json